Time;durP1;ratioP1;P1;durP2;ratioP2;P2;SDS_P1;SDS_P2;PMS_P1;PMS_P2;Temp;Humidity;BMP_temperature;BMP_pressure;BME280_temperature;BME280_humidity;BME280_pressure;Samples;Min_cycle;Max_cycle;Signal;HPM_P1;HPM_P2
2022/12/23 00:02:02;;;;;;;;;;;11.20;99.90;;;;;;5012540;28;19910;-85
2022/12/23 00:04:27;;;;;;;;;;;11.20;99.90;;;;;;5012680;28;20363;-86
2022/12/23 00:06:53;;;;;;;;;;;11.20;99.90;;;;;;5012766;28;19969;-85
2022/12/23 00:09:18;;;;;;;;;;;11.30;99.90;;;;;;5012522;28;19910;-85
2022/12/23 00:17:12;;;;;;;;;;;11.30;99.90;;;;;;5013569;28;19917;-85
2022/12/23 00:19:37;;;;;;;;;;;11.30;99.90;;;;;;5012686;28;19913;-85
2022/12/23 00:22:03;;;;;;;;;;;11.30;99.90;;;;;;5015939;28;20007;-85
2022/12/23 00:24:28;;;;;;;;;;;11.30;99.90;;;;;;5016166;28;19913;-85
2022/12/23 00:26:54;;;;;;;;;;;11.40;99.90;;;;;;5016051;28;20359;-85
2022/12/23 00:29:19;;;;;;;;;;;11.40;99.90;;;;;;5015959;28;19913;-83
2022/12/23 00:31:44;;;;;;;;;;;11.40;99.90;;;;;;5017248;28;19909;-84
2022/12/23 00:34:11;;;;;;;;;;;11.40;99.90;;;;;;5017004;28;19916;-83
2022/12/23 00:36:37;;;;;;;;;;;11.30;99.90;;;;;;5015930;28;19971;-84
2022/12/23 00:44:30;;;;;;;;;;;11.30;99.90;;;;;;5010357;28;19957;-84
2022/12/23 00:46:56;;;;;;;;;;;11.30;99.90;;;;;;4979676;28;19910;-84
2022/12/23 00:49:43;;;;;;;;;;;11.30;99.90;;;;;;4998053;28;19914;-84
2022/12/23 00:52:12;;;;;;;;;;;11.30;99.90;;;;;;4996549;28;19913;-84
2022/12/23 00:54:38;;;;;;;;;;;11.30;99.90;;;;;;4979689;28;19937;-85
2022/12/23 00:57:03;;;;;;;;;;;11.30;99.90;;;;;;4979504;28;19910;-84
2022/12/23 00:59:29;;;;;;;;;;;11.20;99.90;;;;;;4979300;28;19916;-85
2022/12/23 01:07:23;;;;;;;;;;;11.20;99.90;;;;;;4997165;28;19921;-83
2022/12/23 01:09:49;;;;;;;;;;;11.20;99.90;;;;;;4979324;28;19910;-84
2022/12/23 01:12:14;;;;;;;;;;;11.20;99.90;;;;;;4978609;28;19910;-85
2022/12/23 01:14:40;;;;;;;;;;;11.20;99.90;;;;;;4978970;28;19917;-84
2022/12/23 01:17:06;;;;;;;;;;;11.10;99.90;;;;;;4978732;28;19984;-85
2022/12/23 01:19:32;;;;;;;;;;;11.10;99.90;;;;;;4978806;28;19910;-84
2022/12/23 01:21:57;;;;;;;;;;;11.00;99.90;;;;;;4978701;28;19940;-84
2022/12/23 01:24:26;;;;;;;;;;;10.90;99.90;;;;;;4996191;28;19909;-85
2022/12/23 01:26:51;;;;;;;;;;;10.80;99.90;;;;;;4995986;28;19945;-84
2022/12/23 01:29:17;;;;;;;;;;;10.80;99.90;;;;;;4978446;28;19960;-83
2022/12/23 01:31:42;;;;;;;;;;;10.80;99.90;;;;;;4978270;28;20330;-84
2022/12/23 01:34:09;;;;;;;;;;;10.70;99.90;;;;;;4978081;28;19957;-84
2022/12/23 01:36:34;;;;;;;;;;;10.70;99.90;;;;;;4978560;28;19910;-84
2022/12/23 01:39:00;;;;;;;;;;;10.70;99.90;;;;;;4981912;28;19960;-85
2022/12/23 02:05:03;;;;;;;;;;;10.90;99.90;;;;;;4996289;28;19917;-89
2022/12/23 02:10:13;;;;;;;;;;;10.90;99.90;;;;;;4996659;28;19917;-88
2022/12/23 02:12:47;;;;;;;;;;;10.90;99.90;;;;;;4978637;28;19910;-89
2022/12/23 02:18:18;;;;;;;;;;;11.00;99.90;;;;;;4997966;28;20394;-89
2022/12/23 02:20:50;;;;;;;;;;;11.00;99.90;;;;;;4979095;28;19910;-90
2022/12/23 02:23:30;;;;;;;;;;;11.00;99.90;;;;;;4978721;28;19920;-90
2022/12/23 02:26:15;;;;;;;;;;;10.90;99.90;;;;;;4979018;28;19938;-89
2022/12/23 02:28:59;;;;;;;;;;;11.00;99.90;;;;;;4977841;28;20387;-89
2022/12/23 02:31:43;;;;;;;;;;;11.00;99.90;;;;;;4978769;28;19910;-90
2022/12/23 02:34:15;;;;;;;;;;;10.90;99.90;;;;;;4978174;28;20334;-89
2022/12/23 02:36:58;;;;;;;;;;;11.00;99.90;;;;;;4978077;28;20379;-89
2022/12/23 02:39:35;;;;;;;;;;;11.00;99.90;;;;;;4978881;28;19914;-89
2022/12/23 02:42:04;;;;;;;;;;;11.00;99.90;;;;;;4978682;28;19910;-89
2022/12/23 02:44:38;;;;;;;;;;;11.00;99.90;;;;;;4977583;28;19974;-90
2022/12/23 02:47:08;;;;;;;;;;;11.00;99.90;;;;;;4978281;28;20004;-90
2022/12/23 02:49:37;;;;;;;;;;;11.00;99.90;;;;;;4978570;28;19912;-91
2022/12/23 02:52:04;;;;;;;;;;;10.90;99.90;;;;;;4979205;28;19939;-91
2022/12/23 02:54:32;;;;;;;;;;;10.90;99.90;;;;;;4978094;28;20363;-90
2022/12/23 02:56:59;;;;;;;;;;;11.00;99.90;;;;;;4977875;28;19909;-91
2022/12/23 02:59:27;;;;;;;;;;;10.90;99.90;;;;;;4978022;28;19910;-91
2022/12/23 03:01:53;;;;;;;;;;;11.10;99.90;;;;;;4978501;28;19918;-90
2022/12/23 03:04:19;;;;;;;;;;;11.10;99.90;;;;;;4977784;28;19917;-90
2022/12/23 03:06:47;;;;;;;;;;;11.00;99.90;;;;;;4978962;28;20378;-91
2022/12/23 03:09:21;;;;;;;;;;;11.00;99.90;;;;;;4977234;28;19915;-90
2022/12/23 03:11:55;;;;;;;;;;;11.10;99.90;;;;;;4977236;28;20387;-90
2022/12/23 03:14:33;;;;;;;;;;;11.10;99.90;;;;;;4978010;28;19937;-90
2022/12/23 03:17:04;;;;;;;;;;;11.10;99.90;;;;;;4977162;28;19914;-90
2022/12/23 03:19:34;;;;;;;;;;;11.10;99.90;;;;;;4977119;28;19916;-90
2022/12/23 03:22:06;;;;;;;;;;;11.10;99.90;;;;;;4977900;28;19910;-90
2022/12/23 03:24:39;;;;;;;;;;;11.20;99.90;;;;;;4977030;28;20379;-90
2022/12/23 03:27:24;;;;;;;;;;;11.10;99.90;;;;;;4976741;28;19910;-90
2022/12/23 03:29:49;;;;;;;;;;;11.00;99.90;;;;;;4977270;28;20009;-90
2022/12/23 03:32:15;;;;;;;;;;;11.00;99.90;;;;;;4977142;28;20379;-89
2022/12/23 03:34:43;;;;;;;;;;;10.90;99.90;;;;;;4977063;28;19910;-90
2022/12/23 03:37:09;;;;;;;;;;;11.00;99.90;;;;;;4976828;28;19913;-90
2022/12/23 03:40:01;;;;;;;;;;;10.90;99.90;;;;;;4976561;28;19910;-90
2022/12/23 03:42:37;;;;;;;;;;;10.90;99.90;;;;;;4974975;28;20371;-89
2022/12/23 03:45:07;;;;;;;;;;;10.90;99.90;;;;;;4977234;28;20430;-89
2022/12/23 03:47:36;;;;;;;;;;;10.80;99.90;;;;;;4976544;28;19914;-90
2022/12/23 03:50:04;;;;;;;;;;;10.90;99.90;;;;;;4976975;28;19945;-90
2022/12/23 03:52:33;;;;;;;;;;;10.70;99.90;;;;;;4977486;28;19910;-90
2022/12/23 03:55:00;;;;;;;;;;;10.80;99.90;;;;;;4976996;28;20367;-89
2022/12/23 03:57:46;;;;;;;;;;;10.80;99.90;;;;;;4980132;28;20399;-89
2022/12/23 04:00:12;;;;;;;;;;;10.80;99.90;;;;;;4980188;28;19964;-89
2022/12/23 04:02:43;;;;;;;;;;;10.70;99.90;;;;;;4980215;28;19914;-90
2022/12/23 04:05:14;;;;;;;;;;;10.80;99.90;;;;;;4979873;28;19910;-90
2022/12/23 04:07:42;;;;;;;;;;;10.80;99.90;;;;;;4980166;28;20283;-89
2022/12/23 04:10:09;;;;;;;;;;;10.70;99.90;;;;;;4980052;28;19914;-89
2022/12/23 04:12:35;;;;;;;;;;;10.70;99.90;;;;;;4979830;28;20393;-89
2022/12/23 04:15:00;;;;;;;;;;;10.70;99.90;;;;;;4980022;28;20395;-90
2022/12/23 04:17:26;;;;;;;;;;;10.70;99.90;;;;;;4979729;28;19937;-90
2022/12/23 04:19:52;;;;;;;;;;;10.70;99.90;;;;;;4980124;28;19917;-89
2022/12/23 04:22:17;;;;;;;;;;;10.60;99.90;;;;;;4979636;28;19910;-89
2022/12/23 04:24:43;;;;;;;;;;;10.60;99.90;;;;;;4979504;28;20327;-90
2022/12/23 04:27:11;;;;;;;;;;;10.60;99.90;;;;;;4979696;28;19909;-89
2022/12/23 04:29:37;;;;;;;;;;;10.60;99.90;;;;;;4979904;28;19916;-90
2022/12/23 04:32:03;;;;;;;;;;;10.60;99.90;;;;;;4979890;28;20355;-90
2022/12/23 04:34:28;;;;;;;;;;;10.70;99.90;;;;;;4979601;28;19916;-90
2022/12/23 04:36:54;;;;;;;;;;;10.70;99.90;;;;;;4979765;28;19917;-89
2022/12/23 04:39:20;;;;;;;;;;;10.70;99.90;;;;;;4979305;28;19917;-89
2022/12/23 04:41:45;;;;;;;;;;;10.80;99.90;;;;;;4979762;28;20016;-89
2022/12/23 04:44:11;;;;;;;;;;;10.70;99.90;;;;;;4979280;28;20398;-90
2022/12/23 04:46:36;;;;;;;;;;;10.80;99.90;;;;;;4979254;28;20003;-89
2022/12/23 04:49:02;;;;;;;;;;;10.80;99.90;;;;;;4979494;28;19953;-89
2022/12/23 04:51:27;;;;;;;;;;;10.80;99.90;;;;;;4979745;28;20373;-89
2022/12/23 04:53:53;;;;;;;;;;;10.80;99.90;;;;;;4979560;28;19944;-89
2022/12/23 04:56:18;;;;;;;;;;;10.80;99.90;;;;;;4979097;28;19910;-89
2022/12/23 04:58:44;;;;;;;;;;;10.90;99.90;;;;;;4979236;28;19969;-90
2022/12/23 05:01:10;;;;;;;;;;;10.90;99.90;;;;;;4979663;28;19980;-89
2022/12/23 05:03:36;;;;;;;;;;;11.00;99.90;;;;;;4980229;28;19914;-89
2022/12/23 05:06:02;;;;;;;;;;;11.00;99.90;;;;;;4979680;28;19909;-90
2022/12/23 05:08:28;;;;;;;;;;;11.00;99.90;;;;;;4979006;28;19921;-90
2022/12/23 05:10:54;;;;;;;;;;;11.00;99.90;;;;;;4980277;28;20004;-90
2022/12/23 05:13:20;;;;;;;;;;;10.90;99.90;;;;;;4979799;28;19961;-89
2022/12/23 05:15:47;;;;;;;;;;;10.90;99.90;;;;;;4981816;28;19936;-89
2022/12/23 05:18:13;;;;;;;;;;;10.90;99.90;;;;;;4979613;28;20364;-89
2022/12/23 05:20:39;;;;;;;;;;;10.80;99.90;;;;;;4979528;28;19967;-90
2022/12/23 05:23:04;;;;;;;;;;;10.70;99.90;;;;;;4979101;28;19909;-89
2022/12/23 05:25:31;;;;;;;;;;;10.70;99.90;;;;;;4979316;28;20027;-89
2022/12/23 05:27:57;;;;;;;;;;;10.60;99.90;;;;;;4979438;28;20004;-90
2022/12/23 05:30:22;;;;;;;;;;;10.60;99.90;;;;;;4979284;28;19957;-89
2022/12/23 05:32:51;;;;;;;;;;;10.60;99.90;;;;;;4978425;28;20004;-90
2022/12/23 05:35:16;;;;;;;;;;;10.60;99.90;;;;;;4979418;28;20291;-90
2022/12/23 05:37:42;;;;;;;;;;;10.60;99.90;;;;;;4979542;28;19910;-89
2022/12/23 05:40:08;;;;;;;;;;;10.70;99.90;;;;;;4979267;28;19917;-89
2022/12/23 05:42:33;;;;;;;;;;;10.70;99.90;;;;;;4979569;28;19914;-89
2022/12/23 05:44:59;;;;;;;;;;;10.70;99.90;;;;;;4979414;28;19953;-89
2022/12/23 05:47:24;;;;;;;;;;;10.70;99.90;;;;;;4979256;28;19918;-89
2022/12/23 05:49:50;;;;;;;;;;;10.70;99.90;;;;;;4979598;28;19961;-89
2022/12/23 05:52:15;;;;;;;;;;;10.70;99.90;;;;;;4978906;28;19910;-89
2022/12/23 05:54:41;;;;;;;;;;;10.80;99.90;;;;;;4978460;28;19941;-89
2022/12/23 05:57:06;;;;;;;;;;;10.80;99.90;;;;;;4978900;28;20446;-89
2022/12/23 05:59:32;;;;;;;;;;;10.80;99.90;;;;;;4978892;28;19910;-90
2022/12/23 06:01:57;;;;;;;;;;;10.80;99.90;;;;;;4978696;28;19918;-90
2022/12/23 06:04:23;;;;;;;;;;;10.90;99.90;;;;;;4978748;28;19917;-89
2022/12/23 06:06:58;;;;;;;;;;;10.90;99.90;;;;;;4980470;28;19917;-90
2022/12/23 06:09:23;;;;;;;;;;;11.00;99.90;;;;;;4979087;28;19957;-89
2022/12/23 06:11:49;;;;;;;;;;;11.00;99.90;;;;;;4978414;28;19917;-89
2022/12/23 06:14:17;;;;;;;;;;;11.00;99.90;;;;;;4980678;28;19960;-90
2022/12/23 06:16:42;;;;;;;;;;;11.00;99.90;;;;;;4979122;28;19992;-90
2022/12/23 06:19:08;;;;;;;;;;;11.00;99.90;;;;;;4978375;28;19971;-90
2022/12/23 06:21:33;;;;;;;;;;;11.00;99.90;;;;;;4978762;28;19918;-89
2022/12/23 06:23:59;;;;;;;;;;;11.10;99.90;;;;;;4978401;28;20009;-89
2022/12/23 06:26:25;;;;;;;;;;;11.10;99.90;;;;;;4978810;28;20517;-90
2022/12/23 06:28:53;;;;;;;;;;;11.20;99.90;;;;;;4980381;28;19921;-90
2022/12/23 06:31:24;;;;;;;;;;;11.20;99.90;;;;;;4964730;29;19910;-89
2022/12/23 06:33:49;;;;;;;;;;;11.20;99.90;;;;;;4981973;28;19917;-89
2022/12/23 06:36:15;;;;;;;;;;;11.20;99.90;;;;;;4978168;28;19981;-89
2022/12/23 06:38:40;;;;;;;;;;;11.30;99.90;;;;;;4977232;28;19910;-89
2022/12/23 06:41:06;;;;;;;;;;;11.20;99.90;;;;;;4977366;28;19917;-89
2022/12/23 06:43:32;;;;;;;;;;;11.20;99.90;;;;;;4976975;28;19948;-89
2022/12/23 06:45:57;;;;;;;;;;;11.20;99.90;;;;;;4976995;28;19910;-90
2022/12/23 06:48:23;;;;;;;;;;;11.20;99.90;;;;;;4977230;28;20283;-90
2022/12/23 06:50:48;;;;;;;;;;;11.30;99.90;;;;;;4977106;28;19909;-89
2022/12/23 06:53:14;;;;;;;;;;;11.20;99.90;;;;;;4977334;28;20005;-89
2022/12/23 06:55:39;;;;;;;;;;;11.30;99.90;;;;;;4976914;28;19924;-90
2022/12/23 06:58:05;;;;;;;;;;;11.20;99.90;;;;;;4976833;28;19914;-89
2022/12/23 07:00:30;;;;;;;;;;;11.20;99.90;;;;;;4976880;28;20016;-89
2022/12/23 07:02:56;;;;;;;;;;;11.20;99.90;;;;;;4976700;28;19964;-90
2022/12/23 07:05:21;;;;;;;;;;;11.20;99.90;;;;;;4976680;28;20352;-91
2022/12/23 07:07:50;;;;;;;;;;;11.20;99.90;;;;;;4976846;28;20277;-90
2022/12/23 07:10:15;;;;;;;;;;;11.20;99.90;;;;;;4976749;28;19914;-89
2022/12/23 07:12:46;;;;;;;;;;;11.20;99.90;;;;;;4976745;28;19910;-90
2022/12/23 07:15:15;;;;;;;;;;;11.20;99.90;;;;;;4977011;28;19910;-89
2022/12/23 07:17:40;;;;;;;;;;;11.20;99.90;;;;;;4994573;28;19910;-91
2022/12/23 07:20:06;;;;;;;;;;;11.10;99.90;;;;;;4994323;28;19909;-90
2022/12/23 07:22:35;;;;;;;;;;;11.10;99.90;;;;;;4976700;28;19990;-89
2022/12/23 07:25:00;;;;;;;;;;;11.20;99.90;;;;;;4976691;28;19914;-89
2022/12/23 07:27:26;;;;;;;;;;;11.20;99.90;;;;;;4976296;28;19963;-88
2022/12/23 07:29:51;;;;;;;;;;;11.20;99.90;;;;;;4976220;28;19962;-90
2022/12/23 07:32:17;;;;;;;;;;;11.10;99.90;;;;;;4975240;28;20426;-89
2022/12/23 07:34:45;;;;;;;;;;;11.20;99.90;;;;;;4976071;28;19909;-89
2022/12/23 07:37:11;;;;;;;;;;;11.10;99.90;;;;;;4975890;28;19917;-89
2022/12/23 07:39:37;;;;;;;;;;;11.20;99.90;;;;;;4975641;28;20360;-89
2022/12/23 07:42:03;;;;;;;;;;;11.20;99.90;;;;;;4993358;28;19910;-88
2022/12/23 07:44:28;;;;;;;;;;;11.20;99.90;;;;;;5015487;23;19916;-82
2022/12/23 07:46:53;;;;;;;;;;;11.20;99.90;;;;;;4984210;28;19973;-82
2022/12/23 07:49:19;;;;;;;;;;;11.20;99.90;;;;;;4999848;28;20390;-81
2022/12/23 07:51:44;;;;;;;;;;;11.20;99.90;;;;;;4997324;28;19910;-81
2022/12/23 07:54:13;;;;;;;;;;;11.20;99.90;;;;;;4979955;28;19956;-82
2022/12/23 07:56:38;;;;;;;;;;;11.20;99.90;;;;;;4980327;28;19932;-81
2022/12/23 07:59:04;;;;;;;;;;;11.30;99.90;;;;;;4979985;28;19918;-82
2022/12/23 08:01:29;;;;;;;;;;;11.30;99.90;;;;;;4979514;28;19969;-80
2022/12/23 08:03:55;;;;;;;;;;;11.30;99.90;;;;;;4979584;28;20008;-81
2022/12/23 08:06:21;;;;;;;;;;;11.30;99.90;;;;;;4997147;28;19917;-81
2022/12/23 08:08:46;;;;;;;;;;;11.30;99.90;;;;;;4998115;28;19961;-80
2022/12/23 08:11:12;;;;;;;;;;;11.30;99.90;;;;;;4980939;28;19910;-82
2022/12/23 08:13:38;;;;;;;;;;;11.40;99.90;;;;;;4998677;28;19933;-82
2022/12/23 08:16:05;;;;;;;;;;;11.40;99.90;;;;;;4981706;28;19918;-81
2022/12/23 08:18:31;;;;;;;;;;;11.40;99.90;;;;;;4999117;28;19945;-82
2022/12/23 08:20:58;;;;;;;;;;;11.50;99.90;;;;;;4999618;28;19914;-79
2022/12/23 08:23:24;;;;;;;;;;;11.40;99.90;;;;;;4999249;28;20008;-81
2022/12/23 08:26:03;;;;;;;;;;;11.40;99.90;;;;;;4981136;28;19910;-79
2022/12/23 08:28:29;;;;;;;;;;;11.40;99.90;;;;;;4998565;28;20012;-82
2022/12/23 08:30:54;;;;;;;;;;;11.50;99.90;;;;;;4997686;28;19988;-81
2022/12/23 08:33:20;;;;;;;;;;;11.50;99.90;;;;;;4998625;28;19910;-80
2022/12/23 08:35:45;;;;;;;;;;;11.60;99.90;;;;;;4998197;28;19981;-80
2022/12/23 08:38:11;;;;;;;;;;;11.60;99.90;;;;;;4980802;28;19916;-81
2022/12/23 08:40:39;;;;;;;;;;;11.60;99.90;;;;;;4997609;28;19992;-81
2022/12/23 08:43:05;;;;;;;;;;;11.60;99.90;;;;;;4997994;28;19921;-83
2022/12/23 08:45:30;;;;;;;;;;;11.60;99.90;;;;;;4982445;28;19918;-82
2022/12/23 08:47:55;;;;;;;;;;;11.60;99.90;;;;;;4982593;28;19914;-82
2022/12/23 08:50:21;;;;;;;;;;;11.70;99.90;;;;;;4993713;28;20778;-83
2022/12/23 08:52:46;;;;;;;;;;;11.70;99.90;;;;;;4995971;28;19913;-81
2022/12/23 08:55:12;;;;;;;;;;;11.70;99.90;;;;;;4999281;28;19913;-80
2022/12/23 08:57:37;;;;;;;;;;;11.70;99.90;;;;;;4982416;28;19916;-81
2022/12/23 09:00:03;;;;;;;;;;;11.70;99.90;;;;;;4998756;28;19965;-81
2022/12/23 09:02:28;;;;;;;;;;;11.80;99.90;;;;;;4981137;28;19910;-80
2022/12/23 09:04:54;;;;;;;;;;;11.80;99.90;;;;;;5011870;28;19944;-82
2022/12/23 09:07:19;;;;;;;;;;;11.70;99.90;;;;;;4998502;28;20348;-82
2022/12/23 09:09:45;;;;;;;;;;;11.70;99.90;;;;;;4980722;28;20295;-80
2022/12/23 09:12:10;;;;;;;;;;;11.70;99.90;;;;;;4980102;28;19910;-81
2022/12/23 09:14:36;;;;;;;;;;;11.70;99.90;;;;;;4998040;28;19912;-81
2022/12/23 09:17:01;;;;;;;;;;;11.80;99.90;;;;;;4998121;28;19966;-81
2022/12/23 09:19:30;;;;;;;;;;;11.80;99.90;;;;;;4980551;28;19960;-80
2022/12/23 09:21:55;;;;;;;;;;;11.80;99.90;;;;;;4997578;28;19910;-82
2022/12/23 09:24:20;;;;;;;;;;;11.80;99.90;;;;;;4980221;28;20340;-81
2022/12/23 09:26:46;;;;;;;;;;;11.90;99.90;;;;;;4997733;28;19970;-80
2022/12/23 09:29:11;;;;;;;;;;;11.90;99.90;;;;;;4980373;28;19972;-81
2022/12/23 09:31:37;;;;;;;;;;;12.00;99.90;;;;;;4979454;28;19913;-80
2022/12/23 09:34:02;;;;;;;;;;;12.00;99.90;;;;;;4980098;28;19909;-80
2022/12/23 09:36:28;;;;;;;;;;;12.00;99.90;;;;;;4996635;28;19910;-80
2022/12/23 09:38:55;;;;;;;;;;;12.10;99.90;;;;;;4980667;28;19913;-83
2022/12/23 09:41:33;;;;;;;;;;;12.10;99.90;;;;;;4998627;28;20355;-81
2022/12/23 09:44:05;;;;;;;;;;;12.00;99.90;;;;;;4981728;28;19996;-82
2022/12/23 09:46:32;;;;;;;;;;;12.00;99.90;;;;;;4980433;28;20386;-81
2022/12/23 09:48:58;;;;;;;;;;;12.00;99.90;;;;;;4997303;28;19914;-80
2022/12/23 09:51:23;;;;;;;;;;;11.90;99.90;;;;;;4998002;28;19964;-82
2022/12/23 09:54:07;;;;;;;;;;;11.70;99.90;;;;;;4980275;28;19910;-82
2022/12/23 09:56:38;;;;;;;;;;;11.80;99.90;;;;;;4983946;28;19921;-82
2022/12/23 09:59:11;;;;;;;;;;;11.90;99.90;;;;;;4992631;28;19924;-81
2022/12/23 10:01:42;;;;;;;;;;;11.90;99.90;;;;;;4998087;28;19910;-80
2022/12/23 10:04:29;;;;;;;;;;;12.00;99.90;;;;;;4990529;28;19910;-81
2022/12/23 10:07:17;;;;;;;;;;;12.10;99.90;;;;;;4978765;28;20394;-81
2022/12/23 10:09:46;;;;;;;;;;;12.10;99.90;;;;;;4949971;28;19918;-82
2022/12/23 10:12:22;;;;;;;;;;;12.10;99.90;;;;;;4959181;28;19910;-80
2022/12/23 10:14:49;;;;;;;;;;;12.20;99.90;;;;;;4974493;28;19910;-81
2022/12/23 10:17:25;;;;;;;;;;;12.20;99.90;;;;;;4982896;28;20387;-83
2022/12/23 10:19:52;;;;;;;;;;;12.20;99.90;;;;;;4979988;28;19910;-82
2022/12/23 10:22:25;;;;;;;;;;;12.30;99.90;;;;;;4981942;28;19968;-83
2022/12/23 10:24:52;;;;;;;;;;;12.30;99.90;;;;;;4989201;28;19910;-81
2022/12/23 10:27:24;;;;;;;;;;;12.30;99.90;;;;;;4988532;28;19909;-83
2022/12/23 10:29:49;;;;;;;;;;;12.30;99.90;;;;;;4989070;28;19916;-82
2022/12/23 10:32:33;;;;;;;;;;;12.30;99.90;;;;;;4991183;28;19910;-82
2022/12/23 10:35:08;;;;;;;;;;;12.30;99.90;;;;;;5007129;28;19937;-82
2022/12/23 10:37:37;;;;;;;;;;;12.30;99.90;;;;;;4988931;28;19961;-82
2022/12/23 10:40:32;;;;;;;;;;;12.20;99.90;;;;;;4991875;28;19917;-82
2022/12/23 10:43:17;;;;;;;;;;;12.10;99.90;;;;;;4982856;28;19910;-82
2022/12/23 10:46:03;;;;;;;;;;;12.00;99.90;;;;;;4988989;28;19924;-82
2022/12/23 10:48:38;;;;;;;;;;;12.00;99.90;;;;;;4991169;28;19914;-83
2022/12/23 10:51:10;;;;;;;;;;;12.00;99.90;;;;;;4988506;28;19914;-81
2022/12/23 10:53:40;;;;;;;;;;;12.00;99.90;;;;;;5004521;28;19949;-82
2022/12/23 10:56:07;;;;;;;;;;;12.00;99.90;;;;;;4985633;28;19910;-82
2022/12/23 10:58:35;;;;;;;;;;;12.00;99.90;;;;;;4996260;28;19914;-82
2022/12/23 11:01:03;;;;;;;;;;;12.00;99.90;;;;;;5000704;28;19914;-82
2022/12/23 11:03:30;;;;;;;;;;;12.00;99.90;;;;;;4988569;28;19969;-82
2022/12/23 11:05:57;;;;;;;;;;;12.00;99.90;;;;;;5001140;28;20008;-82
2022/12/23 11:08:23;;;;;;;;;;;12.00;99.90;;;;;;4984650;28;19930;-82
2022/12/23 11:10:49;;;;;;;;;;;11.90;99.90;;;;;;5004420;28;19948;-81
2022/12/23 11:13:32;;;;;;;;;;;11.80;99.90;;;;;;4996269;28;19914;-81
2022/12/23 11:16:18;;;;;;;;;;;11.80;99.90;;;;;;4986673;28;19914;-82
2022/12/23 11:18:51;;;;;;;;;;;11.90;99.90;;;;;;4988967;28;19910;-81
2022/12/23 11:21:17;;;;;;;;;;;11.90;99.90;;;;;;4987290;28;19914;-82
2022/12/23 11:23:42;;;;;;;;;;;12.00;99.90;;;;;;5018871;28;19914;-81
2022/12/23 11:26:10;;;;;;;;;;;11.90;99.90;;;;;;4999009;28;20359;-81
2022/12/23 11:28:37;;;;;;;;;;;11.80;99.90;;;;;;4997766;28;19920;-81
2022/12/23 11:31:06;;;;;;;;;;;11.70;99.90;;;;;;4989744;28;19945;-81
2022/12/23 11:33:34;;;;;;;;;;;11.60;99.90;;;;;;4990219;28;19910;-82
2022/12/23 11:36:01;;;;;;;;;;;11.50;99.90;;;;;;4989799;28;20004;-81
2022/12/23 11:38:27;;;;;;;;;;;11.50;99.90;;;;;;4986763;28;19914;-81
2022/12/23 11:40:53;;;;;;;;;;;11.40;99.90;;;;;;4984149;28;19937;-80
2022/12/23 11:43:19;;;;;;;;;;;11.40;99.90;;;;;;5000356;28;19978;-81
2022/12/23 11:45:45;;;;;;;;;;;11.30;99.90;;;;;;4998080;28;19918;-81
2022/12/23 11:48:27;;;;;;;;;;;11.20;99.90;;;;;;4997016;28;20017;-82
2022/12/23 11:51:03;;;;;;;;;;;11.10;99.90;;;;;;4979854;28;19910;-81
2022/12/23 11:53:29;;;;;;;;;;;11.10;99.90;;;;;;4978013;28;19976;-81
2022/12/23 11:56:05;;;;;;;;;;;11.10;99.90;;;;;;4996656;28;19968;-80
2022/12/23 11:58:44;;;;;;;;;;;11.10;99.90;;;;;;4996421;28;20291;-81
2022/12/23 12:01:14;;;;;;;;;;;11.10;99.90;;;;;;4980390;28;20352;-81
2022/12/23 12:03:45;;;;;;;;;;;11.10;99.90;;;;;;4980918;28;19936;-82
2022/12/23 12:06:13;;;;;;;;;;;11.10;99.90;;;;;;4985497;28;19917;-83
2022/12/23 12:08:39;;;;;;;;;;;11.10;99.90;;;;;;4982529;28;19917;-83
2022/12/23 12:11:07;;;;;;;;;;;11.10;99.90;;;;;;4999122;28;19917;-82
2022/12/23 12:13:38;;;;;;;;;;;11.10;99.90;;;;;;4996588;28;19909;-81
2022/12/23 12:16:22;;;;;;;;;;;11.00;99.90;;;;;;4998608;28;19914;-81
2022/12/23 12:18:49;;;;;;;;;;;11.00;99.90;;;;;;5017623;28;19910;-80
2022/12/23 12:21:19;;;;;;;;;;;10.90;99.90;;;;;;5016801;28;19917;-80
2022/12/23 12:23:47;;;;;;;;;;;10.90;99.90;;;;;;4999565;28;19949;-81
2022/12/23 12:26:25;;;;;;;;;;;10.80;99.90;;;;;;4999033;28;19996;-80
2022/12/23 12:28:55;;;;;;;;;;;10.80;99.90;;;;;;4998888;28;20000;-81
2022/12/23 12:31:22;;;;;;;;;;;10.90;99.90;;;;;;5002604;28;20008;-81
2022/12/23 12:33:51;;;;;;;;;;;10.80;99.90;;;;;;4988194;28;19972;-81
2022/12/23 12:36:35;;;;;;;;;;;10.80;99.90;;;;;;4998288;28;19913;-81
2022/12/23 12:39:00;;;;;;;;;;;10.80;99.90;;;;;;4998138;28;20342;-80
2022/12/23 12:41:39;;;;;;;;;;;10.70;99.90;;;;;;4997962;28;19909;-81
2022/12/23 12:44:05;;;;;;;;;;;10.70;99.90;;;;;;5015759;28;19910;-83
2022/12/23 12:46:35;;;;;;;;;;;10.60;99.90;;;;;;4997739;28;19918;-83
2022/12/23 12:49:04;;;;;;;;;;;10.60;99.90;;;;;;4998042;28;19920;-82
2022/12/23 12:51:32;;;;;;;;;;;10.60;99.90;;;;;;5015004;28;19945;-82
2022/12/23 12:54:16;;;;;;;;;;;10.60;99.90;;;;;;4998400;28;19909;-82
2022/12/23 12:56:49;;;;;;;;;;;10.60;99.90;;;;;;5006079;28;19910;-83
2022/12/23 12:59:16;;;;;;;;;;;10.60;99.90;;;;;;5004868;28;19969;-85
2022/12/23 13:02:01;;;;;;;;;;;10.70;99.90;;;;;;5020599;28;19913;-85
2022/12/23 13:04:29;;;;;;;;;;;10.70;99.90;;;;;;5001026;28;19910;-84
2022/12/23 13:07:14;;;;;;;;;;;10.70;99.90;;;;;;5000465;28;19909;-84
2022/12/23 13:09:53;;;;;;;;;;;10.70;99.90;;;;;;5000549;28;19913;-84
2022/12/23 13:12:30;;;;;;;;;;;10.70;99.90;;;;;;5018330;28;19913;-84
2022/12/23 13:15:02;;;;;;;;;;;10.70;99.90;;;;;;5020316;28;19917;-85
2022/12/23 13:17:39;;;;;;;;;;;10.70;99.90;;;;;;5019721;28;19980;-84
2022/12/23 13:20:11;;;;;;;;;;;10.60;99.90;;;;;;5010351;28;19914;-84
2022/12/23 13:22:37;;;;;;;;;;;10.60;99.90;;;;;;5008159;28;20310;-84
2022/12/23 13:25:12;;;;;;;;;;;10.50;99.90;;;;;;4983101;28;19910;-83
2022/12/23 13:27:43;;;;;;;;;;;10.50;99.90;;;;;;5000122;28;19918;-85
2022/12/23 13:30:11;;;;;;;;;;;10.50;99.90;;;;;;4982131;28;19910;-84
2022/12/23 13:32:51;;;;;;;;;;;10.40;99.90;;;;;;4976788;28;20379;-83
2022/12/23 13:35:32;;;;;;;;;;;10.30;99.90;;;;;;4963365;28;19910;-84
2022/12/23 13:38:00;;;;;;;;;;;10.30;99.90;;;;;;4978196;28;19919;-83
2022/12/23 13:40:26;;;;;;;;;;;10.30;99.90;;;;;;4992285;28;20383;-82
2022/12/23 13:42:54;;;;;;;;;;;10.20;99.90;;;;;;4996743;28;19920;-82
2022/12/23 13:45:20;;;;;;;;;;;10.20;99.90;;;;;;5021182;23;20449;-83
2022/12/23 13:48:10;;;;;;;;;;;10.20;99.90;;;;;;4996892;28;20064;-83
2022/12/23 13:50:38;;;;;;;;;;;10.30;99.90;;;;;;4989727;28;19913;-83
2022/12/23 13:53:08;;;;;;;;;;;10.30;99.90;;;;;;4982941;28;19968;-82
2022/12/23 13:55:53;;;;;;;;;;;10.30;99.90;;;;;;4970149;28;19910;-83
2022/12/23 13:58:21;;;;;;;;;;;10.20;99.90;;;;;;4986246;28;19910;-83
2022/12/23 14:00:55;;;;;;;;;;;10.30;99.90;;;;;;4975309;28;19949;-83
2022/12/23 14:03:22;;;;;;;;;;;10.30;99.90;;;;;;4975205;28;20048;-83
2022/12/23 14:05:49;;;;;;;;;;;10.40;99.90;;;;;;4975315;28;20376;-83
2022/12/23 14:08:18;;;;;;;;;;;10.40;99.90;;;;;;4958552;28;19921;-83
2022/12/23 14:11:00;;;;;;;;;;;10.30;99.90;;;;;;4975644;28;19917;-83
2022/12/23 14:13:27;;;;;;;;;;;10.40;99.90;;;;;;4958336;28;19917;-83
2022/12/23 14:15:53;;;;;;;;;;;10.40;99.90;;;;;;4958003;28;19970;-84
2022/12/23 14:18:37;;;;;;;;;;;10.50;99.90;;;;;;4958222;28;20000;-84
2022/12/23 14:21:08;;;;;;;;;;;10.50;99.90;;;;;;4975462;28;20037;-84
2022/12/23 14:23:44;;;;;;;;;;;10.40;99.90;;;;;;4957813;28;19957;-83
2022/12/23 14:26:13;;;;;;;;;;;10.50;99.90;;;;;;4975574;28;19910;-81
2022/12/23 14:28:47;;;;;;;;;;;10.50;99.90;;;;;;4975424;28;19964;-85
2022/12/23 14:31:32;;;;;;;;;;;10.50;99.90;;;;;;4957769;28;20410;-84
2022/12/23 14:34:01;;;;;;;;;;;10.70;99.90;;;;;;4957802;28;19911;-84
2022/12/23 14:36:27;;;;;;;;;;;10.70;99.90;;;;;;4974858;28;20261;-85
2022/12/23 14:39:08;;;;;;;;;;;10.70;99.90;;;;;;4975101;28;20003;-84
2022/12/23 14:41:38;;;;;;;;;;;10.70;99.90;;;;;;4985747;28;19910;-85
2022/12/23 14:44:16;;;;;;;;;;;10.80;99.90;;;;;;4983172;28;20284;-84
2022/12/23 14:46:42;;;;;;;;;;;10.90;99.90;;;;;;4990943;28;19921;-83
2022/12/23 14:49:11;;;;;;;;;;;10.90;99.90;;;;;;4976613;28;19920;-83
2022/12/23 14:51:38;;;;;;;;;;;10.80;99.90;;;;;;4960753;28;19917;-83
2022/12/23 14:54:11;;;;;;;;;;;10.80;99.90;;;;;;4957419;28;20387;-83
2022/12/23 14:56:39;;;;;;;;;;;10.90;99.90;;;;;;4957135;28;19910;-83
2022/12/23 14:59:05;;;;;;;;;;;10.90;99.90;;;;;;4974852;28;20403;-83
2022/12/23 15:01:35;;;;;;;;;;;10.80;99.90;;;;;;4974442;28;19910;-83
2022/12/23 15:04:13;;;;;;;;;;;10.80;99.90;;;;;;4974735;28;19911;-83
2022/12/23 15:06:40;;;;;;;;;;;10.90;99.90;;;;;;4956824;28;19910;-83
2022/12/23 15:09:06;;;;;;;;;;;10.90;99.90;;;;;;4957093;28;20291;-83
2022/12/23 15:11:33;;;;;;;;;;;10.90;99.90;;;;;;4956901;28;19918;-83
2022/12/23 15:14:01;;;;;;;;;;;10.90;99.90;;;;;;4974434;28;20418;-83